createdAt,value
2023-05-15T14:03:24.189Z,97501.00
2023-05-15T14:03:34.274Z,97499.00
2023-05-15T14:03:44.325Z,97501.00
2023-05-15T14:03:54.541Z,97501.00
2023-05-15T14:04:43.347Z,97501.00
2023-05-15T14:04:53.361Z,97497.00
2023-05-15T14:05:03.362Z,97499.00
2023-05-15T14:05:13.358Z,97501.00
2023-05-15T14:05:23.443Z,97501.00
2023-05-15T14:05:33.445Z,97499.00
2023-05-15T14:05:43.451Z,97499.00
2023-05-15T14:05:53.465Z,97503.00
2023-05-15T14:06:03.583Z,97501.00
2023-05-15T14:06:13.608Z,97499.00
2023-05-15T14:06:23.850Z,97501.00
2023-05-15T14:06:33.854Z,97499.00
2023-05-15T14:06:43.857Z,97503.00
2023-05-15T14:06:53.874Z,97501.00
2023-05-15T14:07:03.879Z,97499.00
2023-05-15T14:07:13.884Z,97495.00
2023-05-15T14:07:23.900Z,97497.00
2023-05-15T14:07:33.918Z,97497.00
2023-05-15T14:07:44.054Z,97493.00
2023-05-15T14:07:54.057Z,97497.00
2023-05-15T14:08:04.326Z,97495.00
2023-05-15T14:08:14.324Z,97495.00
2023-05-15T14:08:24.460Z,97495.00
2023-05-15T14:08:34.726Z,97495.00
2023-05-15T14:08:44.977Z,97499.00
2023-05-15T14:08:54.847Z,97499.00
2023-05-15T14:09:05.126Z,97495.00
2023-05-15T14:09:15.112Z,97497.00
2023-05-15T14:09:25.127Z,97499.00
2023-05-15T14:09:35.121Z,97501.00
2023-05-15T14:09:45.156Z,97497.00
2023-05-15T14:09:55.164Z,97501.00
2023-05-15T14:10:05.221Z,97501.00
2023-05-15T14:10:15.307Z,97503.00
2023-05-15T14:10:25.516Z,97501.00
2023-05-15T14:10:35.420Z,97499.00
2023-05-15T14:10:45.405Z,97501.00
2023-05-15T14:10:55.415Z,97505.00
2023-05-15T14:11:05.413Z,97501.00
2023-05-15T14:11:15.418Z,97503.00
2023-05-15T14:11:25.448Z,97505.00
2023-05-15T14:11:35.445Z,97499.00
2023-05-15T14:11:45.446Z,97501.00
2023-05-15T14:11:55.453Z,97501.00
2023-05-15T14:12:05.485Z,97503.00
2023-05-15T14:12:15.524Z,97505.00
2023-05-15T14:12:25.530Z,97505.00
2023-05-15T14:12:35.551Z,97509.00
2023-05-15T14:12:45.548Z,97505.00
2023-05-15T14:12:55.672Z,97509.00
2023-05-15T14:13:05.942Z,97507.00
2023-05-15T14:13:15.940Z,97505.00
2023-05-15T14:13:25.964Z,97507.00
2023-05-15T14:13:35.983Z,97507.00
2023-05-15T14:13:45.978Z,97509.00
2023-05-15T14:13:55.984Z,97509.00
2023-05-15T14:14:05.989Z,97507.00
2023-05-15T14:14:15.997Z,97505.00
2023-05-15T14:14:26.005Z,97509.00
2023-05-15T14:14:36.028Z,97511.00
2023-05-15T14:14:46.031Z,97507.00
2023-05-15T14:14:56.044Z,97509.00
2023-05-15T14:15:06.058Z,97505.00
2023-05-15T14:15:16.199Z,97509.00
2023-05-15T14:15:26.198Z,97509.00
2023-05-15T14:15:36.327Z,97509.00
2023-05-15T14:15:46.322Z,97507.00
2023-05-15T14:15:56.483Z,97511.00
2023-05-15T14:16:06.541Z,97505.00
2023-05-15T14:16:16.604Z,97509.00
2023-05-15T14:16:26.648Z,97509.00
2023-05-15T14:16:36.701Z,97509.00
2023-05-15T14:16:46.746Z,97507.00
2023-05-15T14:16:56.888Z,97507.00
2023-05-15T14:17:07.003Z,97507.00
2023-05-15T14:17:17.027Z,97505.00
2023-05-15T14:17:27.108Z,97505.00
2023-05-15T14:17:37.254Z,97505.00
2023-05-15T14:17:47.290Z,97505.00
2023-05-15T14:17:57.363Z,97505.00
2023-05-15T14:18:07.398Z,97505.00
2023-05-15T14:18:17.432Z,97505.00
2023-05-15T14:18:28.970Z,97507.00
2023-05-15T14:18:37.535Z,97505.00
2023-05-15T14:18:47.553Z,97509.00
2023-05-15T14:18:57.854Z,97509.00
2023-05-15T14:19:07.891Z,97509.00
2023-05-15T14:19:17.924Z,97507.00
2023-05-15T14:19:28.326Z,97513.00
2023-05-15T14:19:38.253Z,97509.00
2023-05-15T14:19:48.344Z,97511.00
2023-05-15T14:19:58.370Z,97509.00
2023-05-15T14:20:08.418Z,97511.00
2023-05-15T14:20:18.407Z,97513.00
2023-05-15T14:20:28.514Z,97509.00
2023-05-15T14:20:38.468Z,97511.00
2023-05-15T14:20:48.476Z,97509.00
2023-05-15T14:20:58.480Z,97511.00
2023-05-15T14:21:08.477Z,97509.00
2023-05-15T14:21:18.483Z,97507.00
2023-05-15T14:21:28.487Z,97509.00
2023-05-15T14:21:38.620Z,97509.00
2023-05-15T14:21:48.629Z,97509.00
2023-05-15T14:21:58.627Z,97507.00
2023-05-15T14:22:08.636Z,97507.00
2023-05-15T14:22:18.906Z,97507.00
2023-05-15T14:22:28.912Z,97505.00
2023-05-15T14:22:38.907Z,97505.00
2023-05-15T14:22:48.902Z,97511.00
2023-05-15T14:22:58.921Z,97505.00
2023-05-15T14:23:08.955Z,97507.00
2023-05-15T14:23:18.963Z,97505.00
2023-05-15T14:23:29.036Z,97501.00
2023-05-15T14:23:39.051Z,97505.00
2023-05-15T14:23:49.048Z,97501.00
2023-05-15T14:23:59.051Z,97503.00
2023-05-15T14:24:09.057Z,97503.00
2023-05-15T14:24:19.177Z,97503.00
2023-05-15T14:24:29.211Z,97503.00
2023-05-15T14:24:39.208Z,97505.00
2023-05-15T14:24:49.216Z,97505.00
2023-05-15T14:24:59.229Z,97509.00
2023-05-15T14:25:09.489Z,97505.00
2023-05-15T14:25:19.488Z,97509.00
2023-05-15T14:25:29.489Z,97507.00
2023-05-15T14:25:39.525Z,97507.00
2023-05-15T14:25:49.510Z,97509.00
2023-05-15T14:25:59.633Z,97509.00
2023-05-15T14:26:09.629Z,97509.00
2023-05-15T14:26:19.640Z,97509.00
2023-05-15T14:26:29.651Z,97507.00
2023-05-15T14:26:39.707Z,97509.00
2023-05-15T14:26:50.038Z,97511.00
2023-05-15T14:27:00.057Z,97511.00
2023-05-15T14:27:10.081Z,97509.00
2023-05-15T14:27:20.104Z,97509.00
2023-05-15T14:27:30.116Z,97507.00
2023-05-15T14:27:40.126Z,97507.00
2023-05-15T14:27:50.142Z,97509.00
2023-05-15T14:28:00.138Z,97509.00
2023-05-15T14:28:10.160Z,97507.00
2023-05-15T14:28:20.158Z,97509.00
2023-05-15T14:28:30.173Z,97509.00
2023-05-15T14:28:40.201Z,97509.00
2023-05-15T14:28:50.193Z,97511.00
2023-05-15T14:29:00.208Z,97511.00
2023-05-15T14:29:10.207Z,97509.00
2023-05-15T14:29:20.324Z,97509.00
2023-05-15T14:29:30.331Z,97511.00
2023-05-15T14:29:40.596Z,97511.00
2023-05-15T14:29:50.598Z,97513.00
2023-05-15T14:30:00.605Z,97511.00
2023-05-15T14:30:10.668Z,97513.00
2023-05-15T14:30:20.677Z,97513.00
2023-05-15T14:30:30.699Z,97513.00
2023-05-15T14:30:40.836Z,97513.00
2023-05-15T14:30:50.847Z,97513.00
2023-05-15T14:31:00.838Z,97513.00
2023-05-15T14:31:10.845Z,97515.00
2023-05-15T14:31:21.096Z,97515.00
2023-05-15T14:31:31.131Z,97513.00
2023-05-15T14:31:41.166Z,97515.00
2023-05-15T14:31:51.199Z,97515.00
2023-05-15T14:32:01.259Z,97513.00
2023-05-15T14:32:11.282Z,97517.00
2023-05-15T14:32:21.452Z,97517.00
2023-05-15T14:32:31.534Z,97513.00
2023-05-15T14:32:41.598Z,97517.00
2023-05-15T14:32:51.711Z,97515.00
2023-05-15T14:33:01.738Z,97515.00
2023-05-15T14:33:11.835Z,97517.00
2023-05-15T14:33:21.849Z,97517.00
2023-05-15T14:33:31.873Z,97517.00
2023-05-15T14:33:41.858Z,97517.00
2023-05-15T14:33:52.620Z,97515.00
2023-05-15T14:34:01.928Z,97521.00
2023-05-15T14:34:11.953Z,97521.00
2023-05-15T14:34:21.940Z,97519.00
2023-05-15T14:34:31.949Z,97517.00
2023-05-15T14:34:42.395Z,97517.00
2023-05-15T14:34:52.408Z,97523.00
2023-05-15T14:35:02.421Z,97523.00
2023-05-15T14:35:12.430Z,97523.00
2023-05-15T14:35:22.513Z,97523.00
2023-05-15T14:35:32.512Z,97521.00
2023-05-15T14:35:42.632Z,97523.00
2023-05-15T14:35:52.656Z,97523.00
2023-05-15T14:36:02.774Z,97523.00
2023-05-15T14:36:12.769Z,97523.00
2023-05-15T14:36:22.905Z,97521.00
2023-05-15T14:36:32.906Z,97523.00
2023-05-15T14:36:42.930Z,97523.00
2023-05-15T14:36:52.981Z,97527.00
2023-05-15T14:37:02.977Z,97527.00
2023-05-15T14:37:12.982Z,97527.00
2023-05-15T14:37:22.978Z,97527.00
2023-05-15T14:37:33.006Z,97527.00
2023-05-15T14:37:43.011Z,97529.00
2023-05-15T14:37:53.124Z,97535.00
2023-05-15T14:38:03.391Z,97535.00
2023-05-15T14:38:13.397Z,97536.00
2023-05-15T14:38:23.413Z,97536.00
2023-05-15T14:38:33.429Z,97536.00
2023-05-15T14:38:43.456Z,97536.00
2023-05-15T14:38:53.433Z,97538.00
2023-05-15T14:39:03.582Z,97535.00
2023-05-15T14:39:13.576Z,97538.00
2023-05-15T14:39:23.584Z,97538.00
2023-05-15T14:39:33.579Z,97538.00
2023-05-15T14:39:43.872Z,97536.00
2023-05-15T14:39:53.879Z,97533.00
2023-05-15T14:40:03.974Z,97531.00
2023-05-15T14:40:14.270Z,97533.00
2023-05-15T14:40:24.453Z,97533.00
2023-05-15T14:40:34.358Z,97533.00
2023-05-15T14:40:44.620Z,97531.00
2023-05-15T14:40:54.617Z,97529.00
2023-05-15T14:41:04.749Z,97529.00
2023-05-15T14:41:15.010Z,97527.00
2023-05-15T14:41:25.015Z,97527.00
2023-05-15T14:41:35.082Z,97525.00
2023-05-15T14:41:45.124Z,97527.00
2023-05-15T14:41:55.122Z,97525.00
2023-05-15T14:42:05.135Z,97525.00
2023-05-15T14:42:15.163Z,97523.00
2023-05-15T14:42:25.174Z,97525.00
2023-05-15T14:42:35.185Z,97527.00
2023-05-15T14:42:45.208Z,97527.00
2023-05-15T14:42:55.189Z,97527.00
2023-05-15T14:43:05.207Z,97525.00
2023-05-15T14:43:15.237Z,97525.00
2023-05-15T14:43:25.255Z,97523.00
2023-05-15T14:43:35.268Z,97527.00
2023-05-15T14:43:45.275Z,97523.00
2023-05-15T14:43:55.277Z,97523.00
2023-05-15T14:44:05.296Z,97527.00
2023-05-15T14:44:15.336Z,97525.00
2023-05-15T14:44:25.327Z,97523.00
2023-05-15T14:44:35.320Z,97525.00
2023-05-15T14:44:45.367Z,97531.00
2023-05-15T14:44:55.395Z,97525.00
2023-05-15T14:45:05.387Z,97525.00
2023-05-15T14:45:15.383Z,97525.00
2023-05-15T14:45:25.631Z,97527.00
2023-05-15T14:45:35.491Z,97525.00
2023-05-15T14:45:45.549Z,97525.00
2023-05-15T14:45:55.640Z,97529.00
2023-05-15T14:46:05.673Z,97527.00
2023-05-15T14:46:15.738Z,97529.00
2023-05-15T14:46:25.802Z,97527.00
2023-05-15T14:46:35.878Z,97529.00
2023-05-15T14:46:45.927Z,97527.00
2023-05-15T14:46:55.882Z,97529.00
2023-05-15T14:47:05.888Z,97529.00
2023-05-15T14:47:15.882Z,97527.00
2023-05-15T14:47:25.892Z,97527.00
2023-05-15T14:47:35.964Z,97527.00
2023-05-15T14:47:46.052Z,97529.00
2023-05-15T14:47:56.135Z,97527.00
2023-05-15T14:48:06.228Z,97529.00
2023-05-15T14:48:16.264Z,97529.00
2023-05-15T14:48:26.393Z,97529.00
2023-05-15T14:48:36.421Z,97527.00
2023-05-15T14:48:46.405Z,97527.00
2023-05-15T14:48:56.411Z,97529.00
2023-05-15T14:49:06.540Z,97533.00
2023-05-15T14:49:16.798Z,97529.00
2023-05-15T14:49:26.810Z,97529.00
2023-05-15T14:49:36.826Z,97529.00
2023-05-15T14:49:46.809Z,97531.00
2023-05-15T14:49:56.829Z,97529.00
2023-05-15T14:50:06.820Z,97531.00
2023-05-15T14:50:16.824Z,97529.00
2023-05-15T14:50:27.219Z,97531.00
2023-05-15T14:50:36.856Z,97529.00
2023-05-15T14:50:46.983Z,97533.00
2023-05-15T14:50:57.241Z,97533.00
2023-05-15T14:51:07.362Z,97533.00
2023-05-15T14:51:19.551Z,97531.00
2023-05-15T14:51:27.498Z,97536.00
2023-05-15T14:51:37.503Z,97535.00
2023-05-15T14:51:47.767Z,97536.00
2023-05-15T14:51:57.764Z,97533.00
2023-05-15T14:52:07.924Z,97533.00
2023-05-15T14:52:18.175Z,97533.00
2023-05-15T14:52:28.204Z,97535.00
2023-05-15T14:52:38.204Z,97533.00
2023-05-15T14:52:48.587Z,97531.00
2023-05-15T14:52:58.592Z,97529.00
2023-05-15T14:53:08.608Z,97535.00
2023-05-15T14:53:18.690Z,97535.00
2023-05-15T14:53:28.688Z,97533.00
2023-05-15T14:53:38.684Z,97531.00
2023-05-15T14:53:48.682Z,97531.00
2023-05-15T14:53:58.725Z,97535.00
2023-05-15T14:54:08.769Z,97535.00
2023-05-15T14:54:18.779Z,97535.00
2023-05-15T14:54:28.839Z,97535.00
2023-05-15T14:54:38.915Z,97533.00
2023-05-15T14:55:00.687Z,97535.00
2023-05-15T14:55:08.491Z,97533.00
2023-05-15T14:55:10.022Z,97533.00
2023-05-15T14:55:19.095Z,97533.00
2023-05-15T14:55:29.100Z,97533.00
2023-05-15T14:55:39.132Z,97535.00
2023-05-15T14:55:49.122Z,97535.00
2023-05-15T14:55:59.371Z,97531.00
2023-05-15T14:56:09.378Z,97533.00
2023-05-15T14:56:19.383Z,97531.00
2023-05-15T14:56:29.381Z,97531.00
2023-05-15T14:56:39.405Z,97531.00
2023-05-15T14:56:49.444Z,97529.00
2023-05-15T14:56:59.452Z,97529.00
2023-05-15T14:57:09.466Z,97531.00
2023-05-15T14:57:19.587Z,97536.00
2023-05-15T14:57:29.583Z,97533.00
2023-05-15T14:57:39.841Z,97529.00
2023-05-15T14:57:49.863Z,97529.00
2023-05-15T14:57:59.846Z,97531.00
2023-05-15T14:58:09.845Z,97531.00
2023-05-15T14:58:19.863Z,97529.00
2023-05-15T14:58:29.944Z,97531.00
2023-05-15T14:58:40.102Z,97531.00
2023-05-15T14:58:50.084Z,97536.00
2023-05-15T14:59:00.220Z,97533.00
2023-05-15T14:59:10.224Z,97531.00
2023-05-15T14:59:20.373Z,97529.00
2023-05-15T14:59:30.367Z,97533.00
2023-05-15T14:59:40.397Z,97531.00
2023-05-15T14:59:50.422Z,97531.00
2023-05-15T15:00:00.487Z,97533.00
2023-05-15T15:00:10.484Z,97533.00
2023-05-15T15:00:20.484Z,97529.00
2023-05-15T15:00:30.493Z,97531.00
2023-05-15T15:00:40.606Z,97531.00
2023-05-15T15:00:50.606Z,97531.00
2023-05-15T15:01:00.872Z,97529.00
2023-05-15T15:01:10.907Z,97529.00
2023-05-15T15:01:20.938Z,97527.00
2023-05-15T15:01:30.945Z,97527.00
2023-05-15T15:01:40.983Z,97529.00
2023-05-15T15:01:51.011Z,97531.00
2023-05-15T15:02:01.224Z,97529.00
2023-05-15T15:02:11.069Z,97527.00
2023-05-15T15:02:21.105Z,97527.00
2023-05-15T15:02:31.156Z,97531.00
2023-05-15T15:02:41.210Z,97531.00
2023-05-15T15:02:51.332Z,97529.00
2023-05-15T15:03:01.312Z,97531.00
2023-05-15T15:03:11.309Z,97527.00
2023-05-15T15:03:21.399Z,97529.00
2023-05-15T15:03:33.310Z,97529.00
2023-05-15T15:03:41.695Z,97529.00
2023-05-15T15:03:51.709Z,97533.00
2023-05-15T15:04:01.728Z,97531.00
2023-05-15T15:04:11.755Z,97531.00
2023-05-15T15:04:21.696Z,97535.00
2023-05-15T15:04:31.720Z,97538.00
2023-05-15T15:04:41.832Z,97535.00
2023-05-15T15:04:51.835Z,97531.00
2023-05-15T15:05:01.846Z,97531.00
2023-05-15T15:05:11.850Z,97533.00
2023-05-15T15:05:21.849Z,97533.00
2023-05-15T15:05:31.859Z,97531.00
2023-05-15T15:05:41.869Z,97531.00
2023-05-15T15:05:51.907Z,97531.00
2023-05-15T15:06:01.920Z,97533.00
2023-05-15T15:06:11.984Z,97533.00
2023-05-15T15:06:21.991Z,97533.00
2023-05-15T15:06:31.998Z,97533.00
2023-05-15T15:06:42.008Z,97533.00
2023-05-15T15:06:52.010Z,97535.00
2023-05-15T15:07:02.013Z,97531.00
2023-05-15T15:07:12.027Z,97531.00
2023-05-15T15:07:22.049Z,97533.00
2023-05-15T15:07:32.047Z,97533.00
2023-05-15T15:07:42.052Z,97533.00
2023-05-15T15:07:52.084Z,97533.00
2023-05-15T15:08:02.115Z,97531.00
2023-05-15T15:08:12.133Z,97535.00
2023-05-15T15:08:22.144Z,97533.00
2023-05-15T15:08:32.196Z,97531.00
2023-05-15T15:08:42.319Z,97533.00
2023-05-15T15:08:52.361Z,97533.00
2023-05-15T15:09:02.352Z,97533.00
2023-05-15T15:09:12.355Z,97535.00
2023-05-15T15:09:22.361Z,97533.00
2023-05-15T15:09:32.363Z,97535.00
2023-05-15T15:09:42.405Z,97533.00
2023-05-15T15:09:52.418Z,97535.00
2023-05-15T15:10:02.426Z,97531.00
2023-05-15T15:10:12.434Z,97531.00
2023-05-15T15:10:22.589Z,97531.00
2023-05-15T15:10:32.632Z,97533.00
2023-05-15T15:10:42.632Z,97533.00
2023-05-15T15:10:52.635Z,97533.00
2023-05-15T15:11:02.923Z,97531.00
2023-05-15T15:11:12.931Z,97533.00
2023-05-15T15:11:22.927Z,97533.00
2023-05-15T15:11:32.926Z,97535.00
2023-05-15T15:11:43.052Z,97533.00
2023-05-15T15:11:53.106Z,97533.00
2023-05-15T15:12:03.143Z,97535.00
2023-05-15T15:12:13.152Z,97533.00
2023-05-15T15:12:23.296Z,97535.00
2023-05-15T15:12:33.296Z,97533.00
2023-05-15T15:12:43.459Z,97533.00
2023-05-15T15:12:53.450Z,97533.00
2023-05-15T15:13:03.596Z,97535.00
2023-05-15T15:13:13.874Z,97535.00
2023-05-15T15:13:23.885Z,97533.00
2023-05-15T15:13:33.911Z,97533.00
2023-05-15T15:13:43.906Z,97533.00
2023-05-15T15:13:53.935Z,97536.00
2023-05-15T15:14:03.933Z,97533.00
2023-05-15T15:14:13.932Z,97533.00
2023-05-15T15:14:23.970Z,97533.00
2023-05-15T15:14:33.955Z,97536.00
2023-05-15T15:14:43.979Z,97536.00
2023-05-15T15:14:53.993Z,97535.00
2023-05-15T15:15:04.001Z,97536.00
2023-05-15T15:15:14.018Z,97536.00
2023-05-15T15:15:24.004Z,97533.00
2023-05-15T15:15:34.024Z,97536.00
2023-05-15T15:15:44.108Z,97535.00
2023-05-15T15:15:54.101Z,97536.00
2023-05-15T15:16:04.137Z,97542.00
2023-05-15T15:16:14.166Z,97536.00
2023-05-15T15:16:24.231Z,97538.00
2023-05-15T15:16:34.340Z,97538.00
2023-05-15T15:16:44.459Z,97538.00
2023-05-15T15:16:54.267Z,97538.00
2023-05-15T15:17:04.280Z,97540.00
2023-05-15T15:17:14.288Z,97538.00
2023-05-15T15:17:24.302Z,97540.00
2023-05-15T15:17:34.334Z,97540.00
2023-05-15T15:17:44.394Z,97540.00
2023-05-15T15:17:54.413Z,97542.00
2023-05-15T15:18:04.570Z,97540.00
2023-05-15T15:18:14.569Z,97536.00
2023-05-15T15:18:24.579Z,97540.00
2023-05-15T15:18:34.629Z,97540.00
2023-05-15T15:18:44.725Z,97540.00
2023-05-15T15:18:54.805Z,97538.00
2023-05-15T15:19:04.927Z,97540.00
2023-05-15T15:19:16.688Z,97540.00
2023-05-15T15:19:24.994Z,97542.00
2023-05-15T15:19:34.947Z,97542.00
2023-05-15T15:19:44.958Z,97540.00
2023-05-15T15:19:55.211Z,97540.00
2023-05-15T15:20:05.224Z,97540.00
2023-05-15T15:20:15.230Z,97540.00
2023-05-15T15:20:25.543Z,97546.00
2023-05-15T15:20:35.342Z,97540.00
2023-05-15T15:20:45.460Z,97542.00
2023-05-15T15:20:55.478Z,97540.00
2023-05-15T15:21:05.761Z,97544.00
2023-05-15T15:21:15.773Z,97546.00
2023-05-15T15:21:25.770Z,97542.00
2023-05-15T15:21:35.765Z,97544.00
2023-05-15T15:21:45.894Z,97542.00
2023-05-15T15:21:55.888Z,97542.00
2023-05-15T15:22:06.018Z,97542.00
2023-05-15T15:22:16.018Z,97542.00
2023-05-15T15:22:26.032Z,97546.00
2023-05-15T15:22:36.025Z,97544.00
2023-05-15T15:22:46.203Z,97546.00
2023-05-15T15:22:56.253Z,97546.00
2023-05-15T15:23:06.267Z,97542.00
2023-05-15T15:23:16.525Z,97544.00
2023-05-15T15:23:26.692Z,97544.00
2023-05-15T15:23:36.699Z,97544.00
2023-05-15T15:23:46.971Z,97546.00
2023-05-15T15:23:56.973Z,97548.00
2023-05-15T15:24:07.117Z,97550.00
2023-05-15T15:24:17.397Z,97544.00
2023-05-15T15:24:27.409Z,97548.00
2023-05-15T15:24:37.405Z,97548.00
2023-05-15T15:24:47.422Z,97546.00
2023-05-15T15:24:59.791Z,97546.00
2023-05-15T15:25:07.479Z,97546.00
2023-05-15T15:25:17.500Z,97548.00
2023-05-15T15:25:27.760Z,97552.00
2023-05-15T15:25:37.951Z,97548.00
2023-05-15T15:25:47.994Z,97548.00
2023-05-15T15:25:58.001Z,97546.00
2023-05-15T15:26:08.056Z,97550.00
2023-05-15T15:26:18.063Z,97548.00
2023-05-15T15:26:28.242Z,97550.00
2023-05-15T15:26:38.249Z,97552.00
2023-05-15T15:26:48.313Z,97550.00
2023-05-15T15:26:58.306Z,97550.00
2023-05-15T15:27:08.458Z,97550.00
2023-05-15T15:27:18.585Z,97550.00
2023-05-15T15:27:28.598Z,97550.00
2023-05-15T15:27:38.603Z,97550.00
2023-05-15T15:27:48.999Z,97550.00
2023-05-15T15:27:59.001Z,97550.00
2023-05-15T15:28:09.005Z,97548.00
2023-05-15T15:28:19.030Z,97548.00
2023-05-15T15:28:29.037Z,97550.00
2023-05-15T15:28:39.037Z,97552.00
2023-05-15T15:28:49.045Z,97552.00
2023-05-15T15:28:59.051Z,97552.00
2023-05-15T15:29:09.173Z,97552.00
2023-05-15T15:29:19.175Z,97550.00
2023-05-15T15:29:29.431Z,97550.00
2023-05-15T15:29:39.512Z,97550.00
2023-05-15T15:29:49.534Z,97550.00
2023-05-15T15:29:59.530Z,97552.00
2023-05-15T15:30:09.544Z,97550.00
2023-05-15T15:30:19.560Z,97550.00
2023-05-15T15:30:29.563Z,97550.00
2023-05-15T15:30:39.570Z,97552.00
2023-05-15T15:30:49.577Z,97552.00
2023-05-15T15:30:59.579Z,97550.00
2023-05-15T15:31:09.665Z,97552.00
2023-05-15T15:31:21.141Z,97552.00
2023-05-15T15:31:29.821Z,97554.00
2023-05-15T15:31:39.757Z,97556.00
2023-05-15T15:31:49.811Z,97554.00
2023-05-15T15:31:59.861Z,97554.00
2023-05-15T15:32:09.916Z,97556.00
2023-05-15T15:32:20.238Z,97552.00
2023-05-15T15:32:30.273Z,97552.00
2023-05-15T15:32:40.266Z,97554.00
2023-05-15T15:32:50.331Z,97552.00
2023-05-15T15:33:00.445Z,97554.00
2023-05-15T15:33:10.423Z,97552.00
2023-05-15T15:33:20.439Z,97552.00
2023-05-15T15:33:30.451Z,97554.00
2023-05-15T15:33:40.453Z,97552.00
2023-05-15T15:33:50.598Z,97554.00
2023-05-15T15:34:03.662Z,97554.00
2023-05-15T15:34:10.906Z,97556.00
2023-05-15T15:34:20.915Z,97556.00
2023-05-15T15:34:30.916Z,97554.00
2023-05-15T15:34:40.941Z,97556.00
2023-05-15T15:34:50.940Z,97552.00
2023-05-15T15:35:00.946Z,97556.00
2023-05-15T15:35:10.952Z,97558.00
2023-05-15T15:35:20.953Z,97558.00
2023-05-15T15:35:31.116Z,97556.00
2023-05-15T15:35:41.087Z,97554.00
2023-05-15T15:35:51.226Z,97554.00
2023-05-15T15:36:01.393Z,97556.00
2023-05-15T15:36:11.428Z,97554.00
2023-05-15T15:36:21.429Z,97554.00
2023-05-15T15:36:31.815Z,97552.00
2023-05-15T15:36:41.820Z,97554.00
2023-05-15T15:36:51.826Z,97554.00
2023-05-15T15:37:01.830Z,97556.00
2023-05-15T15:37:11.849Z,97552.00
2023-05-15T15:37:21.844Z,97552.00
2023-05-15T15:37:31.862Z,97552.00
2023-05-15T15:37:41.863Z,97554.00
2023-05-15T15:37:51.891Z,97554.00
2023-05-15T15:38:01.898Z,97552.00
2023-05-15T15:38:11.921Z,97552.00
2023-05-15T15:38:21.916Z,97552.00
2023-05-15T15:38:31.920Z,97552.00
2023-05-15T15:38:41.972Z,97552.00
2023-05-15T15:38:51.989Z,97554.00
2023-05-15T15:39:01.999Z,97552.00
2023-05-15T15:39:12.006Z,97554.00
2023-05-15T15:39:22.384Z,97552.00
2023-05-15T15:39:32.385Z,97554.00
2023-05-15T15:39:42.531Z,97554.00
2023-05-15T15:39:52.797Z,97552.00
2023-05-15T15:40:02.900Z,97552.00
2023-05-15T15:40:12.900Z,97554.00
2023-05-15T15:40:23.172Z,97552.00
2023-05-15T15:40:33.200Z,97554.00
2023-05-15T15:40:43.201Z,97552.00
2023-05-15T15:40:53.217Z,97554.00
2023-05-15T15:41:03.227Z,97552.00
2023-05-15T15:41:13.259Z,97552.00
2023-05-15T15:41:23.250Z,97556.00
2023-05-15T15:41:33.261Z,97554.00
2023-05-15T15:41:43.271Z,97554.00
2023-05-15T15:41:53.271Z,97554.00
2023-05-15T15:42:05.694Z,97552.00
2023-05-15T15:42:13.756Z,97556.00
2023-05-15T15:42:23.755Z,97554.00
2023-05-15T15:42:34.017Z,97554.00
2023-05-15T15:42:44.028Z,97552.00
2023-05-15T15:42:54.045Z,97550.00
2023-05-15T15:43:04.053Z,97552.00
2023-05-15T15:43:14.078Z,97554.00
2023-05-15T15:43:24.068Z,97554.00
2023-05-15T15:43:34.082Z,97552.00
2023-05-15T15:43:44.093Z,97552.00
2023-05-15T15:43:54.097Z,97552.00
2023-05-15T15:44:04.122Z,97550.00
2023-05-15T15:44:14.163Z,97552.00
2023-05-15T15:44:24.166Z,97552.00
2023-05-15T15:44:34.173Z,97550.00
2023-05-15T15:44:44.180Z,97552.00
2023-05-15T15:44:54.205Z,97550.00
2023-05-15T15:45:04.320Z,97550.00
2023-05-15T15:45:14.325Z,97550.00
2023-05-15T15:45:24.615Z,97546.00
2023-05-15T15:45:34.657Z,97544.00
2023-05-15T15:45:44.665Z,97546.00
2023-05-15T15:45:54.782Z,97542.00
2023-05-15T15:46:04.866Z,97544.00
2023-05-15T15:46:14.956Z,97540.00
2023-05-15T15:46:24.982Z,97540.00
2023-05-15T15:46:34.939Z,97544.00
2023-05-15T15:46:44.951Z,97544.00
2023-05-15T15:46:54.958Z,97540.00
2023-05-15T15:47:04.953Z,97544.00
2023-05-15T15:47:14.979Z,97542.00
2023-05-15T15:47:24.970Z,97542.00
2023-05-15T15:47:35.017Z,97544.00
2023-05-15T15:47:45.139Z,97542.00
2023-05-15T15:47:55.199Z,97542.00
2023-05-15T15:48:05.223Z,97546.00
2023-05-15T15:48:15.232Z,97544.00
2023-05-15T15:48:25.250Z,97542.00
2023-05-15T15:48:35.260Z,97542.00
2023-05-15T15:48:45.252Z,97544.00
2023-05-15T15:48:55.280Z,97542.00
2023-05-15T15:49:06.817Z,97544.00
2023-05-15T15:49:15.287Z,97540.00
2023-05-15T15:49:25.669Z,97538.00
2023-05-15T15:49:35.675Z,97540.00
2023-05-15T15:49:45.684Z,97540.00
2023-05-15T15:49:55.694Z,97542.00
2023-05-15T15:50:05.813Z,97542.00
2023-05-15T15:50:15.825Z,97538.00
2023-05-15T15:50:26.139Z,97542.00
2023-05-15T15:50:35.932Z,97542.00
2023-05-15T15:50:45.938Z,97542.00
2023-05-15T15:50:55.948Z,97542.00
2023-05-15T15:51:06.325Z,97542.00
2023-05-15T15:51:16.346Z,97540.00
2023-05-15T15:51:26.450Z,97544.00
2023-05-15T15:51:36.719Z,97542.00
2023-05-15T15:51:46.719Z,97540.00
2023-05-15T15:51:56.787Z,97542.00
2023-05-15T15:52:07.165Z,97542.00
2023-05-15T15:52:17.171Z,97542.00
2023-05-15T15:52:27.182Z,97544.00
2023-05-15T15:52:37.177Z,97544.00
2023-05-15T15:52:47.217Z,97544.00
2023-05-15T15:52:57.209Z,97546.00
2023-05-15T15:53:07.325Z,97546.00
2023-05-15T15:53:17.332Z,97546.00
2023-05-15T15:53:27.339Z,97546.00
2023-05-15T15:53:37.342Z,97544.00
2023-05-15T15:53:47.624Z,97544.00
2023-05-15T15:53:57.626Z,97544.00
2023-05-15T15:54:07.630Z,97546.00
2023-05-15T15:54:17.672Z,97544.00
2023-05-15T15:54:27.679Z,97546.00
2023-05-15T15:54:37.679Z,97544.00
2023-05-15T15:54:47.683Z,97544.00
2023-05-15T15:54:57.703Z,97546.00
2023-05-15T15:55:07.861Z,97546.00
2023-05-15T15:55:17.841Z,97546.00
2023-05-15T15:55:28.120Z,97546.00
2023-05-15T15:55:38.131Z,97544.00
2023-05-15T15:55:48.146Z,97546.00
2023-05-15T15:55:58.147Z,97546.00
2023-05-15T15:56:08.168Z,97546.00
2023-05-15T15:56:18.172Z,97546.00
2023-05-15T15:56:28.190Z,97546.00
2023-05-15T15:56:38.187Z,97548.00
2023-05-15T15:56:48.215Z,97546.00
2023-05-15T15:56:58.212Z,97548.00
2023-05-15T15:57:08.219Z,97546.00
2023-05-15T15:57:18.226Z,97548.00
2023-05-15T15:57:28.237Z,97548.00
2023-05-15T15:57:38.251Z,97548.00
2023-05-15T15:57:48.265Z,97546.00
2023-05-15T15:57:58.284Z,97548.00
2023-05-15T15:58:08.287Z,97548.00
2023-05-15T15:58:18.315Z,97548.00
2023-05-15T15:58:28.356Z,97550.00
2023-05-15T15:58:38.357Z,97548.00
2023-05-15T15:58:48.354Z,97546.00
2023-05-15T15:58:58.362Z,97548.00
2023-05-15T15:59:08.480Z,97544.00
2023-05-15T15:59:18.477Z,97546.00
2023-05-15T15:59:28.750Z,97548.00
2023-05-15T15:59:38.760Z,97548.00
2023-05-15T15:59:48.754Z,97548.00
2023-05-15T15:59:58.765Z,97546.00
2023-05-15T16:00:08.781Z,97548.00
2023-05-15T16:00:18.779Z,97544.00
2023-05-15T16:00:28.794Z,97548.00
2023-05-15T16:00:38.812Z,97546.00
2023-05-15T16:00:48.827Z,97548.00
2023-05-15T16:00:58.854Z,97546.00
2023-05-15T16:01:08.919Z,97548.00
2023-05-15T16:01:18.982Z,97548.00
2023-05-15T16:01:29.039Z,97546.00
2023-05-15T16:01:39.162Z,97548.00
2023-05-15T16:01:49.297Z,97548.00
2023-05-15T16:01:59.207Z,97546.00